Astor — C6JR3 — position and weather

sailwx.info

Track history (hours):
 
Tides and Currents Weather Stations Pressure Air Temp Water Temp Dewpoint Dewpoint Depression Visibility Wind Speed Wind Dir Waves Ship Positions

Astor

Operator: Passat Ship Management Ltd

Last reported at 2017-Oct-27 10:00 UTC. Time now 2017-Nov-20 03:59 UTC.
Position N 14°14' W 061°07'.
Warning: this ship's position is 23 days out of date.

Length 176 m; draft 6.2 m.

Type: Ship. MMSI: 308214000.

Date/timePositionNaut miles runAvg speedWind from/ knotsBaromVisibWave heightAir tempDewpointWater temp
2017-Oct-27 10:00N 14°14' W 061°07'715.1
2017-Oct-27 09:30N 14°21' W 061°10'815.2
2017-Oct-27 08:59N 14°28' W 061°14'815.3
2017-Oct-27 08:28N 14°35' W 061°18'715.0
2017-Oct-27 07:59N 14°42' W 061°21'11115.1
2017-Oct-27 00:38N 16°26' W 061°60'215.9
2017-Oct-27 00:30N 16°28' W 061°59'714.4
2017-Oct-27 00:00N 16°35' W 061°56'714.5
2017-Oct-26 23:30N 16°41' W 061°59'816.3
2017-Oct-26 23:00N 16°50' W 061°58'816.2
2017-Oct-26 22:30N 16°58' W 061°58'815.8
2017-Oct-26 22:00N 17°06' W 061°57'4 8.6
2017-Oct-26 21:31N 17°08' W 061°53'3 5.1
2017-Oct-26 21:00N 17°07' W 061°51'0 0.1
2017-Oct-26 20:30N 17°07' W 061°51'0 0.0
2017-Oct-26 20:00N 17°07' W 061°51'0 0.0
2017-Oct-26 19:30N 17°07' W 061°51'0 0.0
2017-Oct-26 19:00N 17°07' W 061°51'0 0.0
2017-Oct-26 18:29N 17°07' W 061°51'0 0.0
2017-Oct-26 17:59N 17°07' W 061°51'0 0.0
2017-Oct-26 17:26N 17°07' W 061°51'0 0.0
2017-Oct-26 16:59N 17°07' W 061°51'0 0.0
2017-Oct-26 16:29N 17°07' W 061°51'0 0.0
2017-Oct-26 15:58N 17°07' W 061°51'0 0.0
2017-Oct-26 15:28N 17°07' W 061°51'0 0.0
2017-Oct-26 14:58N 17°07' W 061°51'0 0.0
2017-Oct-26 14:28N 17°07' W 061°51'0 0.0
2017-Oct-26 14:01N 17°07' W 061°51'0 0.0
2017-Oct-26 13:30N 17°07' W 061°51'0 0.0
2017-Oct-26 13:00N 17°07' W 061°51'0 0.0
2017-Oct-26 12:30N 17°07' W 061°51'0 0.0
2017-Oct-26 12:00N 17°07' W 061°51'1 1.6
2017-Oct-26 11:30N 17°07' W 061°52'4 8.2
2017-Oct-26 11:01N 17°10' W 061°55'611.1
2017-Oct-26 10:30N 17°15' W 061°57'613.0
2017-Oct-26 10:01N 17°16' W 061°50'612.9
2017-Oct-26 09:30N 17°17' W 061°43'612.7
2017-Oct-26 09:01N 17°17' W 061°37'612.7
2017-Oct-26 08:31N 17°21' W 061°31'612.7
2017-Oct-26 08:00N 17°25' W 061°26'612.7
2017-Oct-26 07:30N 17°28' W 061°20'713.7
2017-Oct-26 07:00N 17°32' W 061°15'  
2017-Oct-20 20:26N 37°43' W 029°58'715.9
2017-Oct-20 20:00N 37°47' W 029°51'816.3
2017-Oct-20 19:29N 37°52' W 029°43'816.1
2017-Oct-20 19:00N 37°57' W 029°35'816.0
2017-Oct-20 18:30N 38°01' W 029°26'815.4
2017-Oct-20 18:00N 38°06' W 029°18'815.5
2017-Oct-20 17:30N 38°10' W 029°11'815.6
2017-Oct-20 17:00N 38°15' W 029°03'55 4.9
2017-Oct-20 05:51N 38°57' W 028°16'917.4
2017-Oct-20 05:20N 39°04' W 028°10'617.0
2017-Oct-20 05:00N 39°09' W 028°06'815.1
2017-Oct-20 04:30N 39°12' W 027°57'815.4
2017-Oct-20 04:00N 39°16' W 027°49'815.5
2017-Oct-20 03:31N 39°20' W 027°40'714.8
2017-Oct-20 03:00N 39°24' W 027°32'  
Track history (hours):
 
Tides and Currents Weather Stations Pressure Air Temp Water Temp Dewpoint Dewpoint Depression Visibility Wind Speed Wind Dir Waves Ship Positions

Astor

Operator: Passat Ship Management Ltd

Last reported at 2017-Oct-27 10:00 UTC. Time now 2017-Nov-20 03:59 UTC.
Position N 14°14' W 061°07'.
Warning: this ship's position is 23 days out of date.

Length 176 m; draft 6.2 m.

Type: Ship. MMSI: 308214000.

Date/timePositionNaut miles runAvg speedWind from/ knotsBaromVisibWave heightAir tempDewpointWater temp
2017-Oct-27 10:00N 14°14' W 061°07'715.1
2017-Oct-27 09:30N 14°21' W 061°10'815.2
2017-Oct-27 08:59N 14°28' W 061°14'815.3
2017-Oct-27 08:28N 14°35' W 061°18'715.0
2017-Oct-27 07:59N 14°42' W 061°21'11115.1
2017-Oct-27 00:38N 16°26' W 061°60'215.9
2017-Oct-27 00:30N 16°28' W 061°59'714.4
2017-Oct-27 00:00N 16°35' W 061°56'714.5
2017-Oct-26 23:30N 16°41' W 061°59'816.3
2017-Oct-26 23:00N 16°50' W 061°58'816.2
2017-Oct-26 22:30N 16°58' W 061°58'815.8
2017-Oct-26 22:00N 17°06' W 061°57'4 8.6
2017-Oct-26 21:31N 17°08' W 061°53'3 5.1
2017-Oct-26 21:00N 17°07' W 061°51'0 0.1
2017-Oct-26 20:30N 17°07' W 061°51'0 0.0
2017-Oct-26 20:00N 17°07' W 061°51'0 0.0
2017-Oct-26 19:30N 17°07' W 061°51'0 0.0
2017-Oct-26 19:00N 17°07' W 061°51'0 0.0
2017-Oct-26 18:29N 17°07' W 061°51'0 0.0
2017-Oct-26 17:59N 17°07' W 061°51'0 0.0
2017-Oct-26 17:26N 17°07' W 061°51'0 0.0
2017-Oct-26 16:59N 17°07' W 061°51'0 0.0
2017-Oct-26 16:29N 17°07' W 061°51'0 0.0
2017-Oct-26 15:58N 17°07' W 061°51'0 0.0
2017-Oct-26 15:28N 17°07' W 061°51'0 0.0
2017-Oct-26 14:58N 17°07' W 061°51'0 0.0
2017-Oct-26 14:28N 17°07' W 061°51'0 0.0
2017-Oct-26 14:01N 17°07' W 061°51'0 0.0
2017-Oct-26 13:30N 17°07' W 061°51'0 0.0
2017-Oct-26 13:00N 17°07' W 061°51'0 0.0
2017-Oct-26 12:30N 17°07' W 061°51'0 0.0
2017-Oct-26 12:00N 17°07' W 061°51'1 1.6
2017-Oct-26 11:30N 17°07' W 061°52'4 8.2
2017-Oct-26 11:01N 17°10' W 061°55'611.1
2017-Oct-26 10:30N 17°15' W 061°57'613.0
2017-Oct-26 10:01N 17°16' W 061°50'612.9
2017-Oct-26 09:30N 17°17' W 061°43'612.7
2017-Oct-26 09:01N 17°17' W 061°37'612.7
2017-Oct-26 08:31N 17°21' W 061°31'612.7
2017-Oct-26 08:00N 17°25' W 061°26'612.7
2017-Oct-26 07:30N 17°28' W 061°20'713.7
2017-Oct-26 07:00N 17°32' W 061°15'  
2017-Oct-20 20:26N 37°43' W 029°58'715.9
2017-Oct-20 20:00N 37°47' W 029°51'816.3
2017-Oct-20 19:29N 37°52' W 029°43'816.1
2017-Oct-20 19:00N 37°57' W 029°35'816.0
2017-Oct-20 18:30N 38°01' W 029°26'815.4
2017-Oct-20 18:00N 38°06' W 029°18'815.5
2017-Oct-20 17:30N 38°10' W 029°11'815.6
2017-Oct-20 17:00N 38°15' W 029°03'55 4.9
2017-Oct-20 05:51N 38°57' W 028°16'917.4
2017-Oct-20 05:20N 39°04' W 028°10'617.0
2017-Oct-20 05:00N 39°09' W 028°06'815.1
2017-Oct-20 04:30N 39°12' W 027°57'815.4
2017-Oct-20 04:00N 39°16' W 027°49'815.5
2017-Oct-20 03:31N 39°20' W 027°40'714.8
2017-Oct-20 03:00N 39°24' W 027°32'  

Dump ship's entire track history